Saturday, August 18, 2018, 3:15 AM EDT
Back to Local

KORE, Orange, Orange Municipal Airport

Location: Orange, MA, United States Lat: 42.572
Local Time: 3:15 AM EDT ( 7:15 GMT) Lon: -72.278
Time Zone: US/Eastern Elev: 554 ft

Show me the last for .
Show Decoded

2018-08-18 02:52 METAR KORE 180652Z AUTO 19006KT 10SM OVC012 23/21 A2987 RMK AO2 RAE0555 SLP113
                 P0000 T02280211 =
2018-08-18 02:04 METAR KORE 180604Z AUTO 21006KT 10SM BKN014 OVC110 23/22 A2988 RMK AO2 RAE0555
                 P0000 T02280217 =
2018-08-18 01:52 METAR KORE 180552Z AUTO 21005KT 10SM -RA FEW016 OVC110 23/22 A2988 RMK AO2
                 SLP115 P0003 60066 T02330217 10256 20233 56019 =
2018-08-18 00:52 METAR KORE 180452Z AUTO 17004KT 6SM RA BR FEW009 BKN110 23/22 A2990 RMK AO2
                 TSE04 SLP123 P0021 T02330222 403060194 =
2018-08-18 00:49 METAR KORE 180449Z AUTO 16005KT 6SM RA BR SCT009 BKN110 23/22 A2990 RMK AO2
                 TSE04 P0021 =
2018-08-18 00:36 METAR KORE 180436Z AUTO 16004KT 4SM RA BR BKN011 BKN110 24/22 A2992 RMK AO2 LTG
                 DSNT SE TSE04 P0017 T02390222 =
2018-08-18 00:29 METAR KORE 180429Z AUTO 17003KT 2 1/2SM RA BR BKN011 BKN018 OVC100 23/23 A2992
                 RMK AO2 LTG DSNT SE AND S TSE04 P0015 T02330228 =
2018-08-18 00:22 METAR KORE 180422Z AUTO 00000KT 2 1/2SM +RA BR BKN009 BKN013 OVC017 24/23 A2992
                 RMK AO2 LTG DSNT SE AND S TSE04 P0013 T02390228 =
2018-08-18 00:19 METAR KORE 180419Z AUTO 00000KT 3SM RA BR BKN013 OVC017 24/23 A2992 RMK AO2 LTG
                 DSNT SE AND S TSE04 P0012 T02390228 =
2018-08-18 00:04 METAR KORE 180404Z AUTO 15005KT 3SM VCTS RA BR BKN013 BKN029 OVC047 24/22 A2993
                 RMK AO2 LTG DSNT SE AND S TSE04 P0006 T02390222 =
2018-08-17 23:52 METAR KORE 180352Z AUTO 00000KT 4SM TSRA BR SCT015 BKN049 OVC110 24/23 A2994 RMK
                 AO2 LTG DSNT E-SW TSE05B49 SLP135 P0017 T02390228 =
2018-08-17 23:49 METAR KORE 180349Z AUTO 19003KT 4SM TSRA BR FEW015 BKN049 OVC100 24/22 A2994 RMK
                 AO2 LTG DSNT E-SW TSE05B49 P0016 =
2018-08-17 23:19 METAR KORE 180319Z AUTO 16007KT 5SM RA BR FEW080 BKN110 24/23 A2993 RMK AO2 LTG
                 DSNT SE-W TSE05 P0006 T02390228 =
2018-08-17 23:05 METAR KORE 180305Z AUTO 17006KT 5SM VCTS RA BR FEW013 SCT026 BKN110 24/23 A2994
                 RMK AO2 LTG DSNT S-W TSE05 P0002 T02440228 =
2018-08-17 23:00 METAR KORE 180300Z AUTO 15004KT 5SM -TSRA BR FEW011 BKN023 BKN070 24/23 A2994
                 RMK AO2 LTG DSNT S-NW P0001 T02390228 =
2018-08-17 22:52 METAR KORE 180252Z AUTO 16004KT 2SM TSRA BR BKN015 BKN026 OVC100 24/22 A2994 RMK
                 AO2 LTG DSNT S AND NW TSB33 SLP136 P0023 60025 T02440222 56006 =
2018-08-17 22:49 METAR KORE 180249Z AUTO 19003KT 1 1/2SM +TSRA BR SCT013 BKN022 OVC100 24/22
                 A2994 RMK AO2 LTG DSNT S AND SW TSB33 P0023 =
2018-08-17 22:42 METAR KORE 180242Z AUTO 27005KT 2SM +TSRA BR BKN013 BKN021 OVC080 24/23 A2996
                 RMK AO2 LTG DSNT SW TSB33 P0018 T02390228 =
2018-08-17 22:33 METAR KORE 180233Z AUTO 20006KT 5SM -TSRA BR BKN016 BKN045 OVC085 24/23 A2995
                 RMK AO2 LTG DSNT S-W TSB33 P0010 T02440228 =
2018-08-17 22:29 METAR KORE 180229Z AUTO 19007KT 5SM VCTS RA BR SCT018 BKN043 OVC110 24/23 A2994
                 RMK AO2 LTG DSNT S-W P0009 T02440228 =
2018-08-17 21:52 METAR KORE 180152Z AUTO 20004KT 7SM -RA SCT050 SCT075 BKN095 24/23 A2994 RMK AO2
                 LTG DSNT SW RAB02 SLP136 P0002 T02440228 =
2018-08-17 20:52 METAR KORE 180052Z AUTO 18008KT 9SM BKN080 OVC110 26/23 A2996 RMK AO2 LTG DSNT
                 W-NE RAB19E35 SLP142 P0000 T02560228 =
2018-08-17 19:59 METAR KORE 172359Z AUTO 18003KT 8SM SCT021 BKN080 OVC095 26/23 A2995 RMK AO2 LTG
                 DSNT W-NE T02560233 =
2018-08-17 19:52 METAR KORE 172352Z AUTO 17004KT 7SM SCT021 BKN027 OVC095 26/23 A2994 RMK AO2 LTG
                 DSNT W-NE RAB2258E27 TSE18 SLP136 P0007 60059 T02560233 10300 20233 56004 =
2018-08-17 19:37 METAR KORE 172337Z AUTO 16004KT 7SM SCT024 SCT045 OVC095 26/23 A2994 RMK AO2 LTG
                 DSNT W-NE RAB2258E27 TSE18 P0007 T02560233 =
2018-08-17 19:24 METAR KORE 172324Z AUTO 20005KT 8SM VCTS -RA FEW027 BKN080 OVC100 26/23 A2994
                 RMK AO2 LTG DSNT W-NE RAB2258 TSE18 P0007 T02560233 =
2018-08-17 18:52 METAR KORE 172252Z AUTO 16006KT 10SM TS SCT035 OVC090 27/23 A2993 RMK AO2 LTG
                 DSNT N AND NW TSB21E36B49 SLP133 T02720228 =
2018-08-17 18:42 METAR KORE 172242Z AUTO 17004KT 10SM VCTS FEW042 FEW055 OVC090 27/23 A2994 RMK
                 AO2 LTG DSNT SW-N TSB21E36 T02720233 =
2018-08-17 18:27 METAR KORE 172227Z AUTO 17006KT 10SM TS FEW065 OVC090 27/23 A2993 RMK AO2 LTG
                 DSNT SW AND NW TSB21 T02720228 =
2018-08-17 17:52 METAR KORE 172152Z AUTO 21005KT 10SM FEW040 SCT049 SCT055 28/23 A2995 RMK AO2
                 LTG DSNT S SLP140 T02830233 =
2018-08-17 16:52 METAR KORE 172052Z AUTO 18004KT 10SM CLR 27/23 A2998 RMK AO2 SLP149 60052
                 T02720228 58014 =
2018-08-17 15:52 METAR KORE 171952Z AUTO 14004KT 10SM CLR 25/22 A2999 RMK AO2 LTG DSNT NE AND E
                 RAE05B13E27 TSE04 SLP153 P0000 T02500222 =
2018-08-17 15:21 METAR KORE 171921Z AUTO 16004KT 10SM -RA FEW042 BKN085 24/21 A3001 RMK AO2 LTG
                 DSNT NE-SE RAE05B13 TSE04 P0000 T02390211 =
2018-08-17 15:10 METAR KORE 171910Z AUTO 18005KT 10SM VCTS FEW016 BKN085 BKN110 23/21 A3002 RMK
                 AO2 LTG DSNT NE-SE RAE05 TSE04 P0000 T02330211 =
2018-08-17 14:52 METAR KORE 171852Z AUTO 00000KT 8SM -TSRA SCT019 BKN032 BKN100 24/20 A3003 RMK
                 AO2 PK WND 21031/1836 LTG DSNT N AND NE AND S RAB14 TSB18 SLP166 P0052 T02390200
                 =
2018-08-17 14:48 METAR KORE 171848Z AUTO VRB04G16KT 4SM -TSRA BKN021 BKN032 BKN110 24/19 A3003
                 RMK AO2 PK WND 21031/1836 LTG DSNT N AND NE AND S RAB14 TSB18 P0052 =
2018-08-17 14:46 METAR KORE 171846Z AUTO 19003G29KT 1 1/4SM -TSRA BKN021 BKN032 OVC110 24/19
                 A3003 RMK AO2 PK WND 21031/1836 LTG DSNT N AND NE AND S RAB14 TSB18 P0052 =
2018-08-17 14:43 METAR KORE 171843Z AUTO 19009G31KT 3/4SM TSRA BKN021 BKN032 OVC090 23/20 A3004
                 RMK AO2 PK WND 21031/1836 LTG DSNT N AND S RAB14 TSB18 P0051 T02330200 =
2018-08-17 14:36 METAR KORE 171836Z AUTO 21021G31KT 1/2SM +TSRA SCT018 BKN032 OVC095 24/21 A3006
                 RMK AO2 PK WND 21031/1836 LTG DSNT N AND S AND NW RAB14 TSB18 PRESRR P0047
                 T02390211 =
2018-08-17 14:29 METAR KORE 171829Z AUTO 26017G24KT 1 1/4SM +TSRA FEW022 BKN034 BKN080 26/23
                 A3005 RMK AO2 LTG DSNT ALQDS RAB14 TSB18 PRESRR P0017 T02610233 =
2018-08-17 14:24 METAR KORE 171824Z AUTO 25006KT 4SM TSRA FEW034 SCT049 BKN080 28/22 A3002 RMK
                 AO2 LTG DSNT ALQDS RAB14 TSB18 P0002 T02830222 =
2018-08-17 14:14 METAR KORE 171814Z AUTO 15006KT 10SM VCTS -RA SCT090 30/21 A3001 RMK AO2 LTG
                 DSNT SW AND W RAB14 P0000 T03000211 =
2018-08-17 13:52 METAR KORE 171752Z AUTO 17008KT 10SM CLR 30/21 A3002 RMK AO2 LTG DSNT SW AND W
                 SLP162 T03000211 10306 20211 58027 =
2018-08-17 12:52 METAR KORE 171652Z AUTO 18009KT 10SM CLR 30/21 A3005 RMK AO2 SLP171 T03000206 =
2018-08-17 11:52 METAR KORE 171552Z AUTO 18009KT 10SM FEW080 28/19 A3008 RMK AO2 SLP182 T02830194
                 =
2018-08-17 10:52 METAR KORE 171452Z AUTO 18004KT 10SM CLR 26/18 A3010 RMK AO2 SLP190 T02610183
                 56005 =
2018-08-17 09:52 METAR KORE 171352Z AUTO 14003KT 10SM CLR 25/18 A3010 RMK AO2 SLP190 T02500183 =
2018-08-17 08:52 METAR KORE 171252Z AUTO 30003KT 10SM CLR 23/18 A3011 RMK AO2 SLP194 T02330178 =
2018-08-17 07:52 METAR KORE 171152Z AUTO 00000KT 10SM CLR 21/18 A3012 RMK AO2 SLP195 T02110183
                 10217 20194 50001 =
2018-08-17 06:52 METAR KORE 171052Z AUTO 00000KT 4SM BR SCT002 19/18 A3012 RMK AO2 SLP196
                 T01940183 =
2018-08-17 06:47 METAR KORE 171047Z AUTO 00000KT 2SM BR SCT002 19/18 A3012 RMK AO2 =
2018-08-17 06:41 METAR KORE 171041Z AUTO 00000KT 1 1/2SM BR BKN002 19/19 A3012 RMK AO2 T01940189
                 =
2018-08-17 05:52 METAR KORE 170952Z AUTO 00000KT 1/2SM FG VV002 19/18 A3012 RMK AO2 SLP197
                 T01940183 =
2018-08-17 04:52 METAR KORE 170852Z AUTO 00000KT 1/4SM FG VV002 20/19 A3011 RMK AO2 SLP194
                 T02000189 53001 =
2018-08-17 03:52 METAR KORE 170752Z AUTO 00000KT 1/4SM FG VV002 21/20 A3011 RMK AO2 SLP193
                 T02060200 =

Support USWX by starting your Amazon purchase here.